createdAt,value
2023-06-01T00:00:56.465Z,11.65
2023-06-01T00:06:54.978Z,7.38
2023-06-01T00:09:23.071Z,8.77
2023-06-01T00:11:52.324Z,7.93
2023-06-01T00:14:23.765Z,6.78
2023-06-01T00:16:50.784Z,10.80
2023-06-01T00:19:17.628Z,8.48
2023-06-01T00:21:44.462Z,11.38
2023-06-01T00:24:11.434Z,7.30
2023-06-01T00:26:39.526Z,8.00
2023-06-01T00:29:06.275Z,7.20
2023-06-01T00:31:33.174Z,6.75
2023-06-01T00:33:59.887Z,6.57
2023-06-01T00:36:26.626Z,8.23
2023-06-01T00:38:53.341Z,11.68
2023-06-01T00:41:20.121Z,6.65
2023-06-01T00:43:48.226Z,7.10
2023-06-01T00:46:14.942Z,8.43
2023-06-01T00:48:41.788Z,7.25
2023-06-01T00:51:08.534Z,6.70
2023-06-01T00:53:35.210Z,7.00
2023-06-01T00:56:02.038Z,6.88
2023-06-01T00:58:28.837Z,7.25
2023-06-01T01:00:56.951Z,9.48
2023-06-01T01:03:23.666Z,6.72
2023-06-01T01:05:50.522Z,10.82
2023-06-01T01:08:19.085Z,6.40
2023-06-01T01:10:48.867Z,6.05
2023-06-01T01:13:17.690Z,7.25
2023-06-01T01:15:49.758Z,11.57
2023-06-01T01:18:19.139Z,8.38
2023-06-01T01:20:48.885Z,8.65
2023-06-01T01:23:27.400Z,7.57
2023-06-01T01:26:05.911Z,10.32
2023-06-01T01:28:36.947Z,7.45
2023-06-01T01:31:05.137Z,7.90
2023-06-01T01:33:32.871Z,7.25
2023-06-01T01:35:59.845Z,7.55
2023-06-01T01:38:26.544Z,11.40
2023-06-01T01:40:53.330Z,7.28
2023-06-01T01:43:20.094Z,6.82
2023-06-01T01:45:49.478Z,10.75
2023-06-01T01:48:18.563Z,7.82
2023-06-01T01:50:52.080Z,7.47
2023-06-01T01:53:18.892Z,10.20
2023-06-01T01:55:45.875Z,6.68
2023-06-01T01:58:12.653Z,6.90
2023-06-01T02:00:39.359Z,8.73
2023-06-01T02:03:13.714Z,6.32
2023-06-01T02:05:40.552Z,7.03
2023-06-01T02:08:07.325Z,7.72
2023-06-01T02:10:34.032Z,9.02
2023-06-01T02:13:00.757Z,10.45
2023-06-01T02:15:27.493Z,7.43
2023-06-01T02:17:54.253Z,7.57
2023-06-01T02:20:22.447Z,7.25
2023-06-01T02:22:49.132Z,7.50
2023-06-01T02:25:16.232Z,6.82
2023-06-01T02:27:42.960Z,7.80
2023-06-01T02:30:10.456Z,8.07
2023-06-01T02:32:37.346Z,9.45
2023-06-01T02:35:04.637Z,8.05
2023-06-01T02:37:32.754Z,12.98
2023-06-01T02:39:59.521Z,8.02
2023-06-01T02:42:26.188Z,10.23
2023-06-01T02:44:52.878Z,8.45
2023-06-01T02:47:19.636Z,9.07
2023-06-01T02:49:46.372Z,9.68
2023-06-01T02:52:13.090Z,8.73
2023-06-01T02:54:41.229Z,9.15
2023-06-01T02:57:08.212Z,6.90
2023-06-01T02:59:34.925Z,10.65
2023-06-01T03:02:01.608Z,8.55
2023-06-01T03:04:28.442Z,6.97
2023-06-01T03:06:55.195Z,6.15
2023-06-01T03:09:22.039Z,9.00
2023-06-01T03:11:50.119Z,9.90
2023-06-01T03:14:16.792Z,10.35
2023-06-01T03:16:43.594Z,10.45
2023-06-01T03:19:10.403Z,6.55
2023-06-01T03:21:37.141Z,7.07
2023-06-01T03:24:03.988Z,12.45
2023-06-01T03:26:30.695Z,8.05
2023-06-01T03:28:58.776Z,7.38
2023-06-01T03:31:25.616Z,9.13
2023-06-01T03:33:52.522Z,15.18
2023-06-01T03:36:19.247Z,10.30
2023-06-01T03:38:45.983Z,8.93
2023-06-01T03:41:12.882Z,7.13
2023-06-01T03:43:39.718Z,11.45
2023-06-01T03:46:07.888Z,12.27
2023-06-01T03:48:34.574Z,11.23
2023-06-01T03:51:01.447Z,11.95
2023-06-01T03:53:28.423Z,14.77
2023-06-01T03:55:55.102Z,12.05
2023-06-01T03:58:21.807Z,8.52
2023-06-01T04:00:48.813Z,9.13
2023-06-01T04:03:16.947Z,8.57
2023-06-01T04:05:43.768Z,8.25
2023-06-01T04:08:10.447Z,8.48
2023-06-01T04:10:37.143Z,6.63
2023-06-01T04:13:03.913Z,10.10
2023-06-01T04:15:30.735Z,10.13
2023-06-01T04:17:57.456Z,9.48
2023-06-01T04:20:25.754Z,10.13
2023-06-01T04:22:53.667Z,6.53
2023-06-01T04:25:20.616Z,11.90
2023-06-01T04:27:47.889Z,6.78
2023-06-01T04:30:15.019Z,11.43
2023-06-01T04:32:41.746Z,13.65
2023-06-01T04:35:09.127Z,10.13
2023-06-01T04:37:37.824Z,9.35
2023-06-01T04:40:05.441Z,10.93
2023-06-01T04:42:32.184Z,13.20
2023-06-01T04:44:58.898Z,11.15
2023-06-01T04:47:25.724Z,10.95
2023-06-01T04:49:52.431Z,8.52
2023-06-01T04:52:19.151Z,7.57
2023-06-01T04:54:47.232Z,8.27
2023-06-01T04:57:14.162Z,8.05
2023-06-01T04:59:41.443Z,7.55
2023-06-01T05:02:08.178Z,8.80
2023-06-01T05:04:34.948Z,9.70
2023-06-01T05:07:01.870Z,10.30
2023-06-01T05:09:28.598Z,6.82
2023-06-01T05:11:56.665Z,10.50
2023-06-01T05:14:24.457Z,8.20
2023-06-01T05:16:51.150Z,10.30
2023-06-01T05:19:17.909Z,9.52
2023-06-01T05:21:44.764Z,8.18
2023-06-01T05:24:11.689Z,8.70
2023-06-01T05:26:38.407Z,8.98
2023-06-01T05:29:06.475Z,8.13
2023-06-01T05:31:33.664Z,8.52
2023-06-01T05:34:00.365Z,10.70
2023-06-01T05:36:27.091Z,8.35
2023-06-01T05:38:54.574Z,8.13
2023-06-01T05:41:21.280Z,9.13
2023-06-01T05:43:47.997Z,6.10
2023-06-01T05:46:16.140Z,6.20
2023-06-01T05:48:42.826Z,8.38
2023-06-01T05:51:09.549Z,6.38
2023-06-01T05:53:36.281Z,6.00
2023-06-01T05:56:02.993Z,6.22
2023-06-01T05:58:29.725Z,7.60
2023-06-01T06:00:56.489Z,9.25
2023-06-01T06:03:24.740Z,4.75
2023-06-01T06:05:51.664Z,5.10
2023-06-01T06:08:18.386Z,3.33
2023-06-01T06:10:45.115Z,5.97
2023-06-01T06:13:11.827Z,5.30
2023-06-01T06:15:38.652Z,4.72
2023-06-01T06:18:05.416Z,5.28
2023-06-01T06:20:33.700Z,5.65
2023-06-01T06:23:00.442Z,8.52
2023-06-01T06:25:27.167Z,3.78
2023-06-01T06:27:54.404Z,4.28
2023-06-01T06:30:21.188Z,5.60
2023-06-01T06:32:47.906Z,8.68
2023-06-01T06:35:14.906Z,11.00
2023-06-01T06:37:43.100Z,6.90
2023-06-01T06:40:10.690Z,5.90
2023-06-01T06:42:37.411Z,2.58
2023-06-01T06:45:05.058Z,8.88
2023-06-01T06:47:31.773Z,7.60
2023-06-01T06:49:58.574Z,5.90
2023-06-01T06:52:25.319Z,5.13
2023-06-01T06:54:54.754Z,2.90
2023-06-01T06:57:21.480Z,2.95
2023-06-01T06:59:48.302Z,3.25
2023-06-01T07:02:15.178Z,5.32
2023-06-01T07:04:41.882Z,3.40
2023-06-01T07:07:09.620Z,4.20
2023-06-01T07:09:36.369Z,5.00
2023-06-01T07:12:05.116Z,11.38
2023-06-01T07:14:31.837Z,4.03
2023-06-01T07:16:58.656Z,5.28
2023-06-01T07:19:25.396Z,6.10
2023-06-01T07:21:52.157Z,5.97
2023-06-01T07:24:18.972Z,4.38
2023-06-01T07:26:45.665Z,3.35
2023-06-01T07:29:13.793Z,5.20
2023-06-01T07:31:40.554Z,4.55
2023-06-01T07:34:07.291Z,4.40
2023-06-01T07:36:34.483Z,4.25
2023-06-01T07:39:01.212Z,4.20
2023-06-01T07:41:27.945Z,4.80
2023-06-01T07:43:55.007Z,3.10
2023-06-01T07:46:23.067Z,5.93
2023-06-01T07:48:49.908Z,4.32
2023-06-01T07:51:16.774Z,4.05
2023-06-01T07:53:43.629Z,6.90
2023-06-01T07:56:10.356Z,6.68
2023-06-01T07:58:37.124Z,3.67
2023-06-01T08:01:04.253Z,4.20
2023-06-01T08:03:32.554Z,4.85
2023-06-01T08:05:59.524Z,6.65
2023-06-01T08:08:26.389Z,4.97
2023-06-01T08:10:54.368Z,5.28
2023-06-01T08:13:21.394Z,4.28
2023-06-01T08:15:48.430Z,5.75
2023-06-01T08:18:15.836Z,3.00
2023-06-01T08:20:43.935Z,2.85
2023-06-01T08:23:10.721Z,4.10
2023-06-01T08:25:37.467Z,3.85
2023-06-01T08:28:04.261Z,3.97
2023-06-01T08:30:30.984Z,9.05
2023-06-01T08:32:57.834Z,9.00
2023-06-01T08:35:25.063Z,2.83
2023-06-01T08:37:53.254Z,4.07
2023-06-01T08:40:20.046Z,3.08
2023-06-01T08:42:50.394Z,3.53
2023-06-01T08:45:17.098Z,3.20
2023-06-01T08:47:44.474Z,5.60
2023-06-01T08:50:11.450Z,5.32
2023-06-01T08:52:38.888Z,2.45
2023-06-01T08:55:08.282Z,4.13
2023-06-01T08:57:35.653Z,3.28
2023-06-01T09:00:02.379Z,4.95
2023-06-01T09:02:29.080Z,3.78
2023-06-01T09:04:56.031Z,5.05
2023-06-01T09:07:23.476Z,4.22
2023-06-01T09:09:50.319Z,2.60
2023-06-01T09:12:25.479Z,3.80
2023-06-01T09:14:55.404Z,2.83
2023-06-01T09:17:22.841Z,3.22
2023-06-01T09:19:51.566Z,6.68
2023-06-01T09:22:18.264Z,2.45
2023-06-01T09:24:55.907Z,3.83
2023-06-01T09:27:24.022Z,8.00
2023-06-01T09:29:54.047Z,2.95
2023-06-01T09:32:20.980Z,4.85
2023-06-01T09:34:47.704Z,3.53
2023-06-01T09:37:14.411Z,3.25
2023-06-01T09:39:41.166Z,1.80
2023-06-01T09:42:08.609Z,3.08
2023-06-01T09:44:37.904Z,3.63
2023-06-01T09:47:06.122Z,4.03
2023-06-01T09:49:34.664Z,3.17
2023-06-01T09:52:12.438Z,4.82
2023-06-01T09:54:40.389Z,10.10
2023-06-01T09:57:11.453Z,4.13
2023-06-01T09:59:42.020Z,4.07
2023-06-01T10:02:09.286Z,4.57
2023-06-01T10:04:37.951Z,5.22
2023-06-01T10:07:05.325Z,3.78
2023-06-01T10:09:32.100Z,3.38
2023-06-01T10:11:59.340Z,5.05
2023-06-01T10:14:26.312Z,2.47
2023-06-01T10:16:54.551Z,4.90
2023-06-01T10:19:22.511Z,4.15
2023-06-01T10:21:49.306Z,3.78
2023-06-01T10:24:16.363Z,2.58
2023-06-01T10:26:49.140Z,6.03
2023-06-01T10:29:16.625Z,4.20
2023-06-01T10:31:43.683Z,2.35
2023-06-01T10:34:14.289Z,4.57
2023-06-01T10:37:18.673Z,3.08
2023-06-01T10:39:45.565Z,5.85
2023-06-01T10:42:42.638Z,2.67
2023-06-01T10:45:36.592Z,2.90
2023-06-01T10:48:03.633Z,3.75
2023-06-01T10:50:31.839Z,4.57
2023-06-01T10:53:19.091Z,2.45
2023-06-01T10:55:45.905Z,2.30
2023-06-01T10:58:22.038Z,5.50
2023-06-01T11:00:48.876Z,2.80
2023-06-01T11:03:15.831Z,3.22
2023-06-01T11:05:45.344Z,6.32
2023-06-01T11:08:49.481Z,2.22
2023-06-01T11:11:16.865Z,2.25
2023-06-01T11:13:45.123Z,6.95
2023-06-01T11:16:28.851Z,3.25
2023-06-01T11:18:55.732Z,5.75
2023-06-01T11:21:23.925Z,6.03
2023-06-01T11:23:50.738Z,3.30
2023-06-01T11:26:18.064Z,2.75
2023-06-01T11:28:44.882Z,2.83
2023-06-01T11:31:12.362Z,2.88
2023-06-01T11:33:39.620Z,2.72
2023-06-01T11:36:06.912Z,3.33
2023-06-01T11:38:36.826Z,2.97
2023-06-01T11:41:05.220Z,2.30
2023-06-01T11:43:32.197Z,4.82
2023-06-01T11:46:10.303Z,5.10
2023-06-01T11:48:44.395Z,4.22
2023-06-01T11:51:11.268Z,3.83
2023-06-01T11:53:39.397Z,4.43
2023-06-01T11:56:06.229Z,2.42
2023-06-01T11:58:33.100Z,2.47
2023-06-01T12:00:59.947Z,4.30
2023-06-01T12:03:28.661Z,7.35
2023-06-01T12:05:57.020Z,5.32
2023-06-01T12:08:24.230Z,5.03
2023-06-01T12:10:52.813Z,3.13
2023-06-01T12:13:20.070Z,3.67
2023-06-01T12:15:47.479Z,2.85
2023-06-01T12:18:14.462Z,4.03
2023-06-01T12:20:41.886Z,2.40
2023-06-01T12:23:13.889Z,3.30
2023-06-01T12:25:49.435Z,5.85
2023-06-01T12:28:17.587Z,3.05
2023-06-01T12:30:44.713Z,2.80
2023-06-01T12:33:30.505Z,2.30
2023-06-01T12:35:57.412Z,4.57
2023-06-01T12:38:24.164Z,3.55
2023-06-01T12:41:08.513Z,4.55
2023-06-01T12:43:37.038Z,4.10
2023-06-01T12:46:04.148Z,4.13
2023-06-01T12:48:31.062Z,2.78
2023-06-01T12:50:57.876Z,3.53
2023-06-01T12:53:24.628Z,2.17
2023-06-01T12:55:51.388Z,2.53
2023-06-01T12:58:18.317Z,3.67
2023-06-01T13:03:16.644Z,2.50
2023-06-01T13:05:43.494Z,4.22
2023-06-01T13:08:10.269Z,2.33
2023-06-01T13:10:37.572Z,4.82
2023-06-01T13:13:04.296Z,2.63
2023-06-01T13:15:31.016Z,5.68
2023-06-01T13:17:59.475Z,3.42
2023-06-01T13:20:26.265Z,2.42
2023-06-01T13:22:52.995Z,3.92
2023-06-01T13:25:19.875Z,2.65
2023-06-01T13:27:46.688Z,4.22
2023-06-01T13:30:14.445Z,3.05
2023-06-01T13:32:41.227Z,4.45
2023-06-01T13:35:09.994Z,5.13
2023-06-01T13:37:36.805Z,4.22
2023-06-01T13:40:04.153Z,2.97
2023-06-01T13:42:31.026Z,4.35
2023-06-01T13:44:58.067Z,2.83
2023-06-01T13:47:24.846Z,2.70
2023-06-01T13:49:51.657Z,4.43
2023-06-01T13:52:20.119Z,3.90
2023-06-01T13:54:46.876Z,2.95
2023-06-01T13:57:13.670Z,3.60
2023-06-01T13:59:40.459Z,2.92
2023-06-01T14:02:07.957Z,3.22
2023-06-01T14:04:34.900Z,3.90
2023-06-01T14:07:01.648Z,3.47
2023-06-01T14:09:30.076Z,3.40
2023-06-01T14:11:56.933Z,3.55
2023-06-01T14:14:23.880Z,4.40
2023-06-01T14:16:50.801Z,2.90
2023-06-01T14:19:17.798Z,3.85
2023-06-01T14:21:44.550Z,4.93
2023-06-01T14:24:11.393Z,3.28
2023-06-01T14:26:39.758Z,4.43
2023-06-01T14:29:06.560Z,2.97
2023-06-01T14:31:33.407Z,5.30
2023-06-01T14:34:00.199Z,5.47
2023-06-01T14:36:44.981Z,7.20
2023-06-01T14:39:13.298Z,3.60
2023-06-01T14:41:42.547Z,5.35
2023-06-01T14:44:10.745Z,5.50
2023-06-01T14:46:37.514Z,3.95
2023-06-01T14:49:04.258Z,4.22
2023-06-01T14:51:31.201Z,4.07
2023-06-01T14:53:58.593Z,3.97
2023-06-01T14:56:25.342Z,5.07
2023-06-01T14:58:53.492Z,4.57
2023-06-01T15:01:20.257Z,5.95
2023-06-01T15:03:47.184Z,3.75
2023-06-01T15:06:14.340Z,4.45
2023-06-01T15:08:41.172Z,3.33
2023-06-01T15:11:08.040Z,3.22
2023-06-01T15:13:34.735Z,3.03
2023-06-01T15:16:03.000Z,5.22
2023-06-01T15:18:29.745Z,6.13
2023-06-01T15:20:56.524Z,3.20
2023-06-01T15:23:23.578Z,3.88
2023-06-01T15:25:50.325Z,3.08
2023-06-01T15:28:17.013Z,4.50
2023-06-01T15:30:44.102Z,5.25
2023-06-01T15:33:12.212Z,4.45
2023-06-01T15:35:39.152Z,5.13
2023-06-01T15:38:05.952Z,4.40
2023-06-01T15:40:32.734Z,3.25
2023-06-01T15:42:59.785Z,4.30
2023-06-01T15:45:26.524Z,8.57
2023-06-01T15:47:53.286Z,4.75
2023-06-01T15:50:21.720Z,4.63
2023-06-01T15:52:49.082Z,2.83
2023-06-01T15:55:16.147Z,6.65
2023-06-01T15:57:42.871Z,4.63
2023-06-01T16:00:10.604Z,5.05
2023-06-01T16:02:37.409Z,3.80
2023-06-01T16:05:04.317Z,6.30
2023-06-01T16:07:32.505Z,3.35
2023-06-01T16:09:59.604Z,4.90
2023-06-01T16:12:26.330Z,5.07
2023-06-01T16:14:53.050Z,3.67
2023-06-01T16:17:19.837Z,3.95
2023-06-01T16:19:46.538Z,4.03
2023-06-01T16:22:13.428Z,26.90
2023-06-01T16:24:41.631Z,16.35
2023-06-01T16:27:08.375Z,7.57
2023-06-01T16:29:35.129Z,6.45
2023-06-01T16:32:02.012Z,4.63
2023-06-01T16:34:29.313Z,3.80
2023-06-01T16:36:56.071Z,3.78
2023-06-01T16:39:22.786Z,4.97
2023-06-01T16:41:51.386Z,5.00
2023-06-01T16:44:18.163Z,8.00
2023-06-01T16:46:45.008Z,4.00
2023-06-01T16:49:11.721Z,5.15
2023-06-01T16:51:38.503Z,5.13
2023-06-01T16:54:05.705Z,5.00
2023-06-01T16:56:32.441Z,5.28
2023-06-01T16:59:00.571Z,6.22
2023-06-01T17:01:27.399Z,7.85
2023-06-01T17:03:54.283Z,3.30
2023-06-01T17:06:21.130Z,7.95
2023-06-01T17:08:47.860Z,10.02
2023-06-01T17:11:14.658Z,5.60
2023-06-01T17:13:41.492Z,9.07
2023-06-01T17:16:10.352Z,6.82
2023-06-01T17:18:37.630Z,5.05
2023-06-01T17:21:04.939Z,4.03
2023-06-01T17:23:31.648Z,8.13
2023-06-01T17:25:58.347Z,5.10
2023-06-01T17:28:25.180Z,4.40
2023-06-01T17:30:52.137Z,4.10
2023-06-01T17:33:20.506Z,7.97
2023-06-01T17:35:47.231Z,5.95
2023-06-01T17:38:13.936Z,5.88
2023-06-01T17:40:40.826Z,7.50
2023-06-01T17:43:07.594Z,8.82
2023-06-01T17:45:34.302Z,4.25
2023-06-01T17:48:01.183Z,8.13
2023-06-01T17:50:29.471Z,9.23
2023-06-01T17:52:56.197Z,5.90
2023-06-01T17:55:22.956Z,4.43
2023-06-01T17:57:49.963Z,8.65
2023-06-01T18:00:17.578Z,5.20
2023-06-01T18:02:44.320Z,6.18
2023-06-01T18:05:11.186Z,5.25
2023-06-01T18:07:39.347Z,4.50
2023-06-01T18:10:07.410Z,6.18
2023-06-01T18:12:34.179Z,6.18
2023-06-01T18:15:01.695Z,5.65
2023-06-01T18:17:28.709Z,9.85
2023-06-01T18:19:55.568Z,5.40
2023-06-01T18:22:22.314Z,4.60
2023-06-01T18:24:51.018Z,5.07
2023-06-01T18:27:17.744Z,9.05
2023-06-01T18:29:44.611Z,4.30
2023-06-01T18:32:11.702Z,10.20
2023-06-01T18:34:38.485Z,7.70
2023-06-01T18:37:05.835Z,7.57
2023-06-01T18:39:32.519Z,7.88
2023-06-01T18:42:01.046Z,4.93
2023-06-01T18:44:27.800Z,6.88
2023-06-01T18:46:54.594Z,5.70
2023-06-01T18:49:21.623Z,6.03
2023-06-01T18:51:48.380Z,10.35
2023-06-01T18:54:15.103Z,10.25
2023-06-01T18:56:42.181Z,10.35
2023-06-01T18:59:10.616Z,11.00
2023-06-01T19:01:37.486Z,4.90
2023-06-01T19:04:04.365Z,6.95
2023-06-01T19:06:32.945Z,6.85
2023-06-01T19:09:01.085Z,6.57
2023-06-01T19:11:27.841Z,7.65
2023-06-01T19:13:54.594Z,10.20
2023-06-01T19:16:26.853Z,10.15
2023-06-01T19:18:54.426Z,9.30
2023-06-01T19:21:22.101Z,12.25
2023-06-01T19:23:50.681Z,9.75
2023-06-01T19:26:20.196Z,13.95
2023-06-01T19:28:49.750Z,8.10
2023-06-01T19:31:18.303Z,10.23
2023-06-01T19:33:46.421Z,7.10
2023-06-01T19:36:59.310Z,6.88
2023-06-01T19:39:33.859Z,6.57
2023-06-01T19:42:02.389Z,8.32
2023-06-01T19:44:29.693Z,9.50
2023-06-01T19:46:56.577Z,6.72
2023-06-01T19:49:24.784Z,9.55
2023-06-01T19:51:52.078Z,11.38
2023-06-01T19:54:20.095Z,8.82
2023-06-01T19:56:46.998Z,12.35
2023-06-01T19:59:18.417Z,12.35
2023-06-01T20:01:45.151Z,9.27
2023-06-01T20:04:12.516Z,11.25
2023-06-01T20:06:41.748Z,16.75
2023-06-01T20:09:09.164Z,7.03
2023-06-01T20:11:38.706Z,8.27
2023-06-01T20:14:09.800Z,10.70
2023-06-01T20:16:36.683Z,7.60
2023-06-01T20:19:03.430Z,9.77
2023-06-01T20:21:30.245Z,9.68
2023-06-01T20:23:58.440Z,11.15
2023-06-01T20:26:25.335Z,9.30
2023-06-01T20:28:53.261Z,11.27
2023-06-01T20:31:22.240Z,7.50
2023-06-01T20:33:49.168Z,9.05
2023-06-01T20:36:16.110Z,9.88
2023-06-01T20:38:43.429Z,5.80
2023-06-01T20:41:15.055Z,10.10
2023-06-01T20:43:42.075Z,7.50
2023-06-01T20:46:09.451Z,8.77
2023-06-01T20:48:57.256Z,10.20
2023-06-01T20:51:29.092Z,9.15
2023-06-01T20:53:57.490Z,9.57
2023-06-01T20:56:28.255Z,6.75
2023-06-01T20:58:55.066Z,8.23
2023-06-01T21:01:24.696Z,8.88
2023-06-01T21:03:51.946Z,8.23
2023-06-01T21:06:18.808Z,15.10
2023-06-01T21:08:45.623Z,11.73
2023-06-01T21:11:12.834Z,11.18
2023-06-01T21:13:41.929Z,10.18
2023-06-01T21:16:08.883Z,8.15
2023-06-01T21:18:35.674Z,10.20
2023-06-01T21:21:04.865Z,7.30
2023-06-01T21:23:32.402Z,9.95
2023-06-01T21:25:59.282Z,7.68
2023-06-01T21:28:26.074Z,11.30
2023-06-01T21:30:54.616Z,8.02
2023-06-01T21:33:21.489Z,6.88
2023-06-01T21:35:48.567Z,9.75
2023-06-01T21:38:16.072Z,9.35
2023-06-01T21:40:43.417Z,8.20
2023-06-01T21:43:10.323Z,8.95
2023-06-01T21:45:37.083Z,9.30
2023-06-01T21:48:05.570Z,7.50
2023-06-01T21:50:32.771Z,8.23
2023-06-01T21:52:59.581Z,8.88
2023-06-01T21:55:26.461Z,9.35
2023-06-01T21:57:53.530Z,9.15
2023-06-01T22:00:20.382Z,12.52
2023-06-01T22:02:47.519Z,10.00
2023-06-01T22:05:15.760Z,8.40
2023-06-01T22:07:42.768Z,7.75
2023-06-01T22:10:09.784Z,9.95
2023-06-01T22:12:36.587Z,9.30
2023-06-01T22:15:03.670Z,9.23
2023-06-01T22:17:30.572Z,12.05
2023-06-01T22:19:57.463Z,10.52
2023-06-01T22:22:26.157Z,9.20
2023-06-01T22:24:54.083Z,11.50
2023-06-01T22:27:20.917Z,8.93
2023-06-01T22:29:47.705Z,9.35
2023-06-01T22:32:14.605Z,8.77
2023-06-01T22:34:41.489Z,8.95
2023-06-01T22:37:08.270Z,12.60
2023-06-01T22:39:36.421Z,9.73
2023-06-01T22:42:03.558Z,7.72
2023-06-01T22:44:30.378Z,12.50
2023-06-01T22:46:57.243Z,11.02
2023-06-01T22:49:24.279Z,9.45
2023-06-01T22:51:51.138Z,12.35
2023-06-01T22:54:17.990Z,9.27
2023-06-01T22:56:46.222Z,9.50
2023-06-01T22:59:13.112Z,10.13
2023-06-01T23:01:39.852Z,12.80
2023-06-01T23:04:06.651Z,14.10
2023-06-01T23:06:33.872Z,9.35
2023-06-01T23:09:00.708Z,9.73
2023-06-01T23:11:33.963Z,9.63
2023-06-01T23:14:04.224Z,13.40
2023-06-01T23:16:31.072Z,11.13
2023-06-01T23:18:57.888Z,12.57
2023-06-01T23:21:24.714Z,15.50
2023-06-01T23:23:51.517Z,11.25
2023-06-01T23:26:18.288Z,13.70
2023-06-01T23:28:54.805Z,10.80
2023-06-01T23:31:23.047Z,11.75
2023-06-01T23:33:49.796Z,9.63
2023-06-01T23:36:16.524Z,8.55
2023-06-01T23:38:43.514Z,9.07
2023-06-01T23:41:10.293Z,8.90
2023-06-01T23:43:37.993Z,12.55
2023-06-01T23:46:04.991Z,10.95
2023-06-01T23:48:33.575Z,13.43
2023-06-01T23:51:00.366Z,12.65
2023-06-01T23:53:27.244Z,8.90
2023-06-01T23:55:54.278Z,7.78
2023-06-01T23:58:21.009Z,11.27
